Aérodrome :







RETROUVEZ-NOUS SUR...

 
LOGIN :

S'inscrire | Disclaimer

   EN    FR    IT 

 









Légende :    VFR   VFR Marginal   IFR   IFR Intensif   IFR Très Intensif
Visi : 
Plafond : 
>= 8 km
>= 3000ft
5 à 8 km
1000 à 3000 ft
1500m à 5 km
500 à 1000 ft
800 à 1500m
200 à 500 ft
< 800m
< 200 ft
Symboles :   Orages  Brouillard  Fortes neiges  Fortes précipitations  Vent > 20 kt






- Altitude de l'aérodrome : 203 ft
- Code IATA : YQY


CYQY - Sydney

DERNIER METAR :
  • 141300Z 28007KT 15SM SCT048 SCT070 BKN210 BKN240 M01/M05 A3039 RMK SC3AC1CI2CI1 -SHSN DIST E CU ASOCTD SLP297

METARs EXPIRÉS :
  • 141200Z 29008KT 15SM FEW055 SCT200 BKN220 M03/M06 A3035 RMK SC2CC1CS3 SLP284
  • 141100Z 28010KT 15SM FEW050 BKN220 M03/M06 A3030 RMK SC2CS5 SLP266

TAF TAF CYQY
Valide du 14 à 12h jusqu'au 15 à 00h UTC


141138Z 1412/1424 28008KT P6SM SCT020
TEMPO 1412/1415 4SM -SHSN BKN020
FM141500 28007KT 6SM -SHSN OVC025
TEMPO 1415/1422 2SM -SHSN OVC015
BECMG 1416/1418 VRB03KT
FM142200 VRB03KT P6SM -SHSN BKN030 OVC140 RMK NXT FCST BY 141800Z



MET'MAP, la Météo Aéronautique d'un coup d'oeil ! - Copyright ORBIFLY Décembre 2007 - Disclaimer

ORBIFLY MET'MAP TEAM :

Programmation & Développement : Alexandra Zaïnal
Conception & Développement : Baudouin d'Aumeries
Co-Programmation & Développement : Marc-Olivier Méhu
Soutien technique & logistique : Manuel Goepfert

Contact : metmap@orbifly.com




SOURCES & CREDITS :

   NOAA